Treuchtlingen-Bubenheim Airport EDNT

Flugplatz Daten

Name: Treuchtlingen-Bubenheim Airport

Ident: EDNT

Lat: 48,99611282

Long: 10,88416672

Platzhöhe: 1345 ft

IataCode:

City: Treuchtlingen

Metar

2017/07/11 23:51
MMSP 112351Z 04005KT 10SM FEW015 SCT020 BKN080 OVC200 18/14 A3018 RMK SLP100 57010 957 8/463 PCPN 3 Y 4 QEDNTE

Taf

Gewünschte Webcam nicht vorhanden? Dann fügen Sie eine hinzu. Sie wird dann so schnell wie möglich freigeschaltet
Url: Title: